createdAt,value
2022-12-29T00:01:30.915Z,98112.00
2022-12-29T00:03:04.690Z,98107.00
2022-12-29T00:04:38.086Z,98095.00
2022-12-29T00:06:11.091Z,98098.00
2022-12-29T00:07:44.299Z,98097.00
2022-12-29T00:09:17.537Z,98103.00
2022-12-29T00:10:50.836Z,98098.00
2022-12-29T00:12:24.162Z,98092.00
2022-12-29T00:14:19.233Z,98106.00
2022-12-29T00:15:53.735Z,98093.00
2022-12-29T00:17:27.015Z,98100.00
2022-12-29T00:18:59.728Z,98103.00
2022-12-29T00:20:54.414Z,98105.00
2022-12-29T00:22:46.135Z,98090.00
2022-12-29T00:24:48.242Z,98092.00
2022-12-29T00:26:39.505Z,98083.00
2022-12-29T00:28:30.565Z,98080.00
2022-12-29T00:30:28.742Z,98069.00
2022-12-29T00:32:19.760Z,98059.00
2022-12-29T00:34:10.738Z,98055.00
2022-12-29T00:35:49.845Z,98055.00
2022-12-29T00:37:43.263Z,98046.00
2022-12-29T00:39:49.199Z,98069.00
2022-12-29T00:41:40.057Z,98067.00
2022-12-29T00:43:30.902Z,98064.00
2022-12-29T00:45:09.829Z,98050.00
2022-12-29T00:46:44.965Z,98064.00
2022-12-29T00:48:37.732Z,98061.00
2022-12-29T00:50:11.415Z,98046.00
2022-12-29T00:51:44.609Z,98045.00
2022-12-29T00:53:18.106Z,98043.00
2022-12-29T00:54:51.325Z,98042.00
2022-12-29T00:56:23.679Z,98047.00
2022-12-29T00:57:57.131Z,98031.00
2022-12-29T00:59:30.482Z,98037.00
2022-12-29T01:01:07.731Z,98028.00
2022-12-29T01:02:41.124Z,98044.00
2022-12-29T01:04:15.528Z,98028.00
2022-12-29T01:05:51.203Z,98021.00
2022-12-29T01:07:25.619Z,98023.00
2022-12-29T01:09:16.389Z,98028.00
2022-12-29T01:11:01.734Z,98028.00
2022-12-29T01:12:45.703Z,98023.00
2022-12-29T01:14:20.536Z,98032.00
2022-12-29T01:15:53.187Z,98036.00
2022-12-29T01:17:30.906Z,98029.00
2022-12-29T01:19:09.090Z,98034.00
2022-12-29T01:20:45.659Z,98036.00
2022-12-29T01:22:18.932Z,98031.00
2022-12-29T01:23:51.199Z,98034.00
2022-12-29T01:25:24.415Z,98025.00
2022-12-29T01:26:56.833Z,98015.00
2022-12-29T01:28:30.012Z,98012.00
2022-12-29T01:30:03.237Z,98008.00
2022-12-29T01:31:42.411Z,98007.00
2022-12-29T01:33:17.381Z,98006.00
2022-12-29T01:34:51.638Z,98006.00
2022-12-29T01:36:25.752Z,98011.00
2022-12-29T01:37:59.565Z,98017.00
2022-12-29T01:39:32.832Z,98013.00
2022-12-29T01:41:06.969Z,98017.00
2022-12-29T01:42:40.706Z,98031.00
2022-12-29T01:44:54.947Z,98022.00
2022-12-29T01:46:38.297Z,98016.00
2022-12-29T01:48:12.420Z,98013.00
2022-12-29T01:49:47.243Z,98022.00
2022-12-29T01:51:20.892Z,98016.00
2022-12-29T01:53:02.004Z,98015.00
2022-12-29T01:54:42.166Z,98011.00
2022-12-29T01:56:22.213Z,98015.00
2022-12-29T01:58:05.774Z,98009.00
2022-12-29T01:59:48.123Z,98008.00
2022-12-29T02:01:23.502Z,98015.00
2022-12-29T02:02:57.301Z,98025.00
2022-12-29T02:04:34.486Z,98029.00
2022-12-29T02:06:19.432Z,98022.00
2022-12-29T02:07:54.910Z,98035.00
2022-12-29T02:09:28.638Z,98022.00
2022-12-29T02:11:02.133Z,98027.00
2022-12-29T02:12:35.976Z,98024.00
2022-12-29T02:14:12.158Z,98022.00
2022-12-29T02:16:03.710Z,98015.00
2022-12-29T02:18:01.562Z,98026.00
2022-12-29T02:20:39.784Z,98014.00
2022-12-29T02:22:26.801Z,97992.00
2022-12-29T02:24:51.773Z,98010.00
2022-12-29T02:26:51.751Z,98001.00
2022-12-29T02:29:21.621Z,98009.00
2022-12-29T02:31:11.682Z,98010.00
2022-12-29T02:32:56.156Z,98005.00
2022-12-29T02:34:47.361Z,98002.00
2022-12-29T02:36:35.683Z,97999.00
2022-12-29T02:38:21.741Z,97996.00
2022-12-29T02:40:07.832Z,97994.00
2022-12-29T02:41:56.198Z,97983.00
2022-12-29T02:43:41.130Z,97980.00
2022-12-29T02:45:23.496Z,97977.00
2022-12-29T02:47:07.216Z,97980.00
2022-12-29T02:48:47.230Z,97986.00
2022-12-29T02:50:28.566Z,97985.00
2022-12-29T02:52:07.906Z,97983.00
2022-12-29T02:54:05.761Z,97981.00
2022-12-29T02:55:39.747Z,97970.00
2022-12-29T02:57:29.066Z,97971.00
2022-12-29T02:59:02.500Z,97980.00
2022-12-29T03:00:43.091Z,97974.00
2022-12-29T03:02:52.898Z,97975.00
2022-12-29T03:04:41.556Z,97973.00
2022-12-29T03:06:37.395Z,97984.00
2022-12-29T03:08:24.994Z,97973.00
2022-12-29T03:10:09.714Z,97967.00
2022-12-29T03:12:11.360Z,97972.00
2022-12-29T03:14:09.261Z,97971.00
2022-12-29T03:16:04.801Z,97967.00
2022-12-29T03:17:52.572Z,97966.00
2022-12-29T03:19:31.386Z,97966.00
2022-12-29T03:21:11.555Z,97968.00
2022-12-29T03:22:50.450Z,97975.00
2022-12-29T03:24:33.709Z,97962.00
2022-12-29T03:26:12.892Z,97958.00
2022-12-29T03:27:52.397Z,97954.00
2022-12-29T03:29:29.287Z,97956.00
2022-12-29T03:31:06.443Z,97958.00
2022-12-29T03:32:49.130Z,97956.00
2022-12-29T03:34:25.771Z,97959.00
2022-12-29T03:36:05.340Z,97944.00
2022-12-29T03:37:43.357Z,97940.00
2022-12-29T03:39:18.609Z,97941.00
2022-12-29T03:40:58.662Z,97950.00
2022-12-29T03:42:38.410Z,97950.00
2022-12-29T03:44:13.116Z,97939.00
2022-12-29T03:45:46.422Z,97950.00
2022-12-29T03:47:18.769Z,97936.00
2022-12-29T03:48:55.156Z,97944.00
2022-12-29T03:50:28.511Z,97945.00
2022-12-29T03:52:00.896Z,97936.00
2022-12-29T03:53:35.563Z,97945.00
2022-12-29T03:55:10.812Z,97930.00
2022-12-29T03:56:44.364Z,97937.00
2022-12-29T03:58:18.473Z,97941.00
2022-12-29T04:00:02.751Z,97936.00
2022-12-29T04:01:56.907Z,97936.00
2022-12-29T04:03:30.416Z,97933.00
2022-12-29T04:05:03.886Z,97926.00
2022-12-29T04:06:37.228Z,97937.00
2022-12-29T04:08:14.118Z,97932.00
2022-12-29T04:09:47.579Z,97930.00
2022-12-29T04:11:31.364Z,97932.00
2022-12-29T04:13:07.012Z,97924.00
2022-12-29T04:14:40.761Z,97922.00
2022-12-29T04:16:14.414Z,97921.00
2022-12-29T04:17:49.929Z,97923.00
2022-12-29T04:19:23.702Z,97923.00
2022-12-29T04:21:03.459Z,97922.00
2022-12-29T04:22:39.590Z,97929.00
2022-12-29T04:24:13.921Z,97928.00
2022-12-29T04:25:49.201Z,97926.00
2022-12-29T04:27:22.895Z,97917.00
2022-12-29T04:29:11.377Z,97913.00
2022-12-29T04:30:56.226Z,97902.00
2022-12-29T04:32:32.615Z,97909.00
2022-12-29T04:34:07.315Z,97898.00
2022-12-29T04:35:39.650Z,97902.00
2022-12-29T04:37:13.220Z,97888.00
2022-12-29T04:38:46.779Z,97886.00
2022-12-29T04:40:20.708Z,97884.00
2022-12-29T04:41:54.382Z,97874.00
2022-12-29T04:43:29.145Z,97885.00
2022-12-29T04:45:19.667Z,97883.00
2022-12-29T04:46:59.254Z,97887.00
2022-12-29T04:48:46.176Z,97872.00
2022-12-29T04:50:33.991Z,97880.00
2022-12-29T04:52:20.330Z,97884.00
2022-12-29T04:53:53.601Z,97870.00
2022-12-29T04:55:25.977Z,97880.00
2022-12-29T04:56:59.320Z,97891.00
2022-12-29T04:58:32.736Z,97889.00
2022-12-29T05:00:09.707Z,97882.00
2022-12-29T05:01:44.356Z,97901.00
2022-12-29T05:03:17.382Z,97898.00
2022-12-29T05:04:52.100Z,97877.00
2022-12-29T05:06:27.530Z,97891.00
2022-12-29T05:08:00.862Z,97913.00
2022-12-29T05:09:34.096Z,97915.00
2022-12-29T05:11:08.059Z,97918.00
2022-12-29T05:12:41.586Z,97906.00
2022-12-29T05:14:14.808Z,97922.00
2022-12-29T05:15:52.797Z,97912.00
2022-12-29T05:17:27.221Z,97915.00
2022-12-29T05:19:00.626Z,97915.00
2022-12-29T05:20:33.907Z,97915.00
2022-12-29T05:22:08.739Z,97925.00
2022-12-29T05:23:41.956Z,97913.00
2022-12-29T05:25:15.196Z,97906.00
2022-12-29T05:27:00.842Z,97915.00
2022-12-29T05:28:44.352Z,97917.00
2022-12-29T05:30:20.558Z,97918.00
2022-12-29T05:31:53.999Z,97920.00
2022-12-29T05:33:28.076Z,97910.00
2022-12-29T05:35:01.850Z,97907.00
2022-12-29T05:36:38.240Z,97911.00
2022-12-29T05:38:15.187Z,97919.00
2022-12-29T05:39:48.149Z,97920.00
2022-12-29T05:41:21.711Z,97917.00
2022-12-29T05:43:14.866Z,97929.00
2022-12-29T05:45:10.884Z,97924.00
2022-12-29T05:46:58.361Z,97932.00
2022-12-29T05:48:51.574Z,97940.00
2022-12-29T05:50:32.359Z,97944.00
2022-12-29T05:52:15.281Z,97936.00
2022-12-29T05:53:49.962Z,97943.00
2022-12-29T05:55:24.062Z,97954.00
2022-12-29T05:56:59.969Z,97946.00
2022-12-29T05:58:34.067Z,97946.00
2022-12-29T06:00:10.271Z,97949.00
2022-12-29T06:01:53.856Z,97940.00
2022-12-29T06:03:27.351Z,97940.00
2022-12-29T06:05:01.117Z,97945.00
2022-12-29T06:06:35.296Z,97954.00
2022-12-29T06:08:09.845Z,97954.00
2022-12-29T06:09:44.513Z,97947.00
2022-12-29T06:11:17.802Z,97951.00
2022-12-29T06:12:57.172Z,97946.00
2022-12-29T06:14:30.761Z,97934.00
2022-12-29T06:16:06.293Z,97943.00
2022-12-29T06:17:40.031Z,97956.00
2022-12-29T06:19:13.517Z,97951.00
2022-12-29T06:20:47.765Z,97944.00
2022-12-29T06:22:22.861Z,97946.00
2022-12-29T06:23:56.499Z,97954.00
2022-12-29T06:25:33.322Z,97945.00
2022-12-29T06:27:07.109Z,97947.00
2022-12-29T06:28:40.736Z,97946.00
2022-12-29T06:30:15.850Z,97954.00
2022-12-29T06:31:52.033Z,97929.00
2022-12-29T06:33:25.382Z,97942.00
2022-12-29T06:35:00.255Z,97941.00
2022-12-29T06:36:33.545Z,97947.00
2022-12-29T06:38:07.536Z,97937.00
2022-12-29T06:39:40.907Z,97944.00
2022-12-29T06:41:19.547Z,97933.00
2022-12-29T06:43:12.879Z,97947.00
2022-12-29T06:45:01.613Z,97946.00
2022-12-29T06:46:35.279Z,97940.00
2022-12-29T06:48:09.504Z,97951.00
2022-12-29T06:49:43.059Z,97934.00
2022-12-29T06:51:16.343Z,97935.00
2022-12-29T06:52:49.684Z,97958.00
2022-12-29T06:54:23.023Z,97966.00
2022-12-29T06:55:57.550Z,97963.00
2022-12-29T06:57:30.884Z,97962.00
2022-12-29T06:59:04.342Z,97971.00
2022-12-29T07:00:39.148Z,97972.00
2022-12-29T07:02:13.299Z,97969.00
2022-12-29T07:03:46.832Z,97966.00
2022-12-29T07:05:22.030Z,97980.00
2022-12-29T07:06:57.083Z,97982.00
2022-12-29T07:08:30.421Z,97983.00
2022-12-29T07:10:04.699Z,97978.00
2022-12-29T07:11:39.054Z,97982.00
2022-12-29T07:13:12.522Z,97984.00
2022-12-29T07:14:49.606Z,97990.00
2022-12-29T07:16:24.374Z,97983.00
2022-12-29T07:17:57.608Z,97999.00
2022-12-29T07:19:30.997Z,97993.00
2022-12-29T07:21:04.991Z,98004.00
2022-12-29T07:22:39.526Z,97992.00
2022-12-29T07:24:12.789Z,97987.00
2022-12-29T07:25:45.982Z,97998.00
2022-12-29T07:27:19.509Z,98013.00
2022-12-29T07:28:53.619Z,98017.00
2022-12-29T07:30:26.839Z,98015.00
2022-12-29T07:32:01.460Z,98017.00
2022-12-29T07:33:36.076Z,98013.00
2022-12-29T07:35:10.694Z,98024.00
2022-12-29T07:36:43.892Z,98035.00
2022-12-29T07:38:18.560Z,98029.00
2022-12-29T07:39:51.942Z,98041.00
2022-12-29T07:41:25.200Z,98039.00
2022-12-29T07:42:58.380Z,98043.00
2022-12-29T07:44:39.518Z,98036.00
2022-12-29T07:46:54.623Z,98044.00
2022-12-29T07:48:27.782Z,98047.00
2022-12-29T07:50:01.245Z,98043.00
2022-12-29T07:51:33.644Z,98046.00
2022-12-29T07:53:06.885Z,98045.00
2022-12-29T07:54:40.098Z,98046.00
2022-12-29T07:56:13.377Z,98051.00
2022-12-29T07:57:46.936Z,98046.00
2022-12-29T07:59:20.504Z,98053.00
2022-12-29T08:00:56.194Z,98057.00
2022-12-29T08:02:30.688Z,98057.00
2022-12-29T08:04:06.943Z,98057.00
2022-12-29T08:05:40.581Z,98060.00
2022-12-29T08:07:13.942Z,98063.00
2022-12-29T08:08:47.100Z,98071.00
2022-12-29T08:10:20.551Z,98089.00
2022-12-29T08:11:53.936Z,98085.00
2022-12-29T08:13:27.253Z,98080.00
2022-12-29T08:15:07.519Z,98079.00
2022-12-29T08:16:41.989Z,98071.00
2022-12-29T08:18:16.153Z,98070.00
2022-12-29T08:19:50.883Z,98075.00
2022-12-29T08:21:24.970Z,98075.00
2022-12-29T08:22:58.193Z,98095.00
2022-12-29T08:24:31.470Z,98085.00
2022-12-29T08:26:07.173Z,98090.00
2022-12-29T08:27:40.604Z,98094.00
2022-12-29T08:29:16.772Z,98097.00
2022-12-29T08:30:50.146Z,98090.00
2022-12-29T08:32:23.888Z,98081.00
2022-12-29T08:33:57.413Z,98087.00
2022-12-29T08:35:32.102Z,98074.00
2022-12-29T08:37:05.578Z,98085.00
2022-12-29T08:38:38.890Z,98081.00
2022-12-29T08:40:12.969Z,98082.00
2022-12-29T08:41:46.465Z,98083.00
2022-12-29T08:43:20.259Z,98085.00
2022-12-29T08:44:53.704Z,98079.00
2022-12-29T08:46:27.062Z,98088.00
2022-12-29T08:48:00.455Z,98075.00
2022-12-29T08:49:34.219Z,98086.00
2022-12-29T08:51:09.349Z,98078.00
2022-12-29T08:52:42.568Z,98076.00
2022-12-29T08:54:15.971Z,98076.00
2022-12-29T08:56:02.403Z,98078.00
2022-12-29T08:57:42.283Z,98073.00
2022-12-29T08:59:22.320Z,98084.00
2022-12-29T09:00:56.557Z,98085.00
2022-12-29T09:02:29.962Z,98088.00
2022-12-29T09:04:14.783Z,98079.00
2022-12-29T09:05:51.077Z,98082.00
2022-12-29T09:07:26.522Z,98083.00
2022-12-29T09:08:59.853Z,98087.00
2022-12-29T09:10:33.184Z,98071.00
2022-12-29T09:12:21.502Z,98071.00
2022-12-29T09:13:55.767Z,98078.00
2022-12-29T09:15:29.161Z,98077.00
2022-12-29T09:17:20.032Z,98078.00
2022-12-29T09:18:53.503Z,98075.00
2022-12-29T09:20:26.950Z,98084.00
2022-12-29T09:22:00.224Z,98080.00
2022-12-29T09:23:36.079Z,98099.00
2022-12-29T09:25:11.050Z,98095.00
2022-12-29T09:26:47.084Z,98099.00
2022-12-29T09:28:20.730Z,98129.00
2022-12-29T09:29:54.130Z,98120.00
2022-12-29T09:31:27.398Z,98118.00
2022-12-29T09:33:01.957Z,98127.00
2022-12-29T09:34:36.237Z,98140.00
2022-12-29T09:36:11.169Z,98143.00
2022-12-29T09:37:45.298Z,98152.00
2022-12-29T09:39:20.096Z,98152.00
2022-12-29T09:40:58.143Z,98152.00
2022-12-29T09:42:40.755Z,98152.00
2022-12-29T09:44:22.858Z,98158.00
2022-12-29T09:46:10.350Z,98162.00
2022-12-29T09:47:47.054Z,98167.00
2022-12-29T09:49:29.686Z,98170.00
2022-12-29T09:51:11.252Z,98162.00
2022-12-29T09:52:51.289Z,98154.00
2022-12-29T09:55:00.917Z,98164.00
2022-12-29T09:56:42.188Z,98152.00
2022-12-29T09:58:24.982Z,98155.00
2022-12-29T10:00:05.321Z,98161.00
2022-12-29T10:02:35.144Z,98158.00
2022-12-29T10:04:09.345Z,98159.00
2022-12-29T10:05:54.634Z,98156.00
2022-12-29T10:07:40.647Z,98164.00
2022-12-29T10:09:23.522Z,98169.00
2022-12-29T10:11:01.506Z,98158.00
2022-12-29T10:12:57.025Z,98161.00
2022-12-29T10:14:53.881Z,98163.00
2022-12-29T10:16:41.101Z,98165.00
2022-12-29T10:18:39.966Z,98171.00
2022-12-29T10:20:33.425Z,98162.00
2022-12-29T10:22:26.371Z,98177.00
2022-12-29T10:24:06.542Z,98175.00
2022-12-29T10:25:43.496Z,98164.00
2022-12-29T10:27:19.344Z,98161.00
2022-12-29T10:28:58.766Z,98167.00
2022-12-29T10:30:35.309Z,98167.00
2022-12-29T10:32:21.363Z,98161.00
2022-12-29T10:34:04.023Z,98155.00
2022-12-29T10:35:41.523Z,98160.00
2022-12-29T10:37:33.996Z,98165.00
2022-12-29T10:39:18.643Z,98167.00
2022-12-29T10:40:59.429Z,98157.00
2022-12-29T10:42:41.643Z,98161.00
2022-12-29T10:44:19.888Z,98157.00
2022-12-29T10:45:56.485Z,98156.00
2022-12-29T10:47:36.154Z,98144.00
2022-12-29T10:49:21.740Z,98159.00
2022-12-29T10:51:02.173Z,98168.00
2022-12-29T10:52:39.951Z,98167.00
2022-12-29T10:54:21.812Z,98170.00
2022-12-29T10:55:57.572Z,98167.00
2022-12-29T10:57:36.080Z,98154.00
2022-12-29T10:59:21.132Z,98167.00
2022-12-29T11:00:56.375Z,98173.00
2022-12-29T11:03:10.537Z,98156.00
2022-12-29T11:04:58.253Z,98172.00
2022-12-29T11:06:32.961Z,98180.00
2022-12-29T11:08:14.159Z,98174.00
2022-12-29T11:09:49.016Z,98186.00
2022-12-29T11:11:28.278Z,98170.00
2022-12-29T11:13:04.706Z,98160.00
2022-12-29T11:14:38.999Z,98178.00
2022-12-29T11:16:14.647Z,98166.00
2022-12-29T11:17:50.728Z,98168.00
2022-12-29T11:19:26.720Z,98174.00
2022-12-29T11:21:04.084Z,98170.00
2022-12-29T11:22:37.743Z,98168.00
2022-12-29T11:24:24.121Z,98174.00
2022-12-29T11:26:17.026Z,98175.00
2022-12-29T11:27:59.006Z,98172.00
2022-12-29T11:29:40.838Z,98167.00
2022-12-29T11:31:19.685Z,98176.00
2022-12-29T11:32:54.911Z,98174.00
2022-12-29T11:34:34.445Z,98195.00
2022-12-29T11:36:15.250Z,98180.00
2022-12-29T11:37:57.744Z,98187.00
2022-12-29T11:39:38.784Z,98187.00
2022-12-29T11:41:21.077Z,98191.00
2022-12-29T11:42:58.451Z,98191.00
2022-12-29T11:44:39.228Z,98192.00
2022-12-29T11:46:20.706Z,98178.00
2022-12-29T11:47:58.409Z,98190.00
2022-12-29T11:49:31.838Z,98212.00
2022-12-29T11:51:05.756Z,98205.00
2022-12-29T11:52:41.973Z,98213.00
2022-12-29T11:54:23.616Z,98209.00
2022-12-29T11:55:59.298Z,98218.00
2022-12-29T11:57:35.451Z,98219.00
2022-12-29T11:59:38.891Z,98218.00
2022-12-29T12:01:18.913Z,98233.00
2022-12-29T12:03:01.037Z,98242.00
2022-12-29T12:04:39.845Z,98217.00
2022-12-29T12:06:21.881Z,98213.00
2022-12-29T12:08:07.420Z,98224.00
2022-12-29T12:09:52.574Z,98230.00
2022-12-29T12:11:37.180Z,98220.00
2022-12-29T12:13:24.655Z,98231.00
2022-12-29T12:15:01.518Z,98240.00
2022-12-29T12:16:52.719Z,98242.00
2022-12-29T12:18:40.242Z,98247.00
2022-12-29T12:20:23.877Z,98242.00
2022-12-29T12:22:09.977Z,98246.00
2022-12-29T12:24:16.013Z,98247.00
2022-12-29T12:26:00.947Z,98245.00
2022-12-29T12:27:43.121Z,98251.00
2022-12-29T12:29:26.846Z,98247.00
2022-12-29T12:31:03.439Z,98238.00
2022-12-29T12:32:48.690Z,98245.00
2022-12-29T12:34:29.904Z,98241.00
2022-12-29T12:36:29.492Z,98251.00
2022-12-29T12:38:22.222Z,98235.00
2022-12-29T12:40:21.743Z,98250.00
2022-12-29T12:42:15.664Z,98257.00
2022-12-29T12:43:55.523Z,98259.00
2022-12-29T12:45:46.114Z,98256.00
2022-12-29T12:47:48.745Z,98260.00
2022-12-29T12:50:07.812Z,98258.00
2022-12-29T12:52:02.944Z,98270.00
2022-12-29T12:53:58.943Z,98269.00
2022-12-29T12:55:52.965Z,98271.00
2022-12-29T12:57:45.402Z,98275.00
2022-12-29T12:59:37.027Z,98281.00
2022-12-29T13:01:35.412Z,98285.00
2022-12-29T13:03:19.238Z,98281.00
2022-12-29T13:05:27.116Z,98294.00
2022-12-29T13:07:16.405Z,98297.00
2022-12-29T13:09:38.549Z,98299.00
2022-12-29T13:11:27.014Z,98288.00
2022-12-29T13:13:36.614Z,98291.00
2022-12-29T13:15:30.116Z,98288.00
2022-12-29T13:17:16.440Z,98282.00
2022-12-29T13:18:59.729Z,98283.00
2022-12-29T13:20:44.782Z,98288.00
2022-12-29T13:22:26.773Z,98286.00
2022-12-29T13:24:18.428Z,98274.00
2022-12-29T13:26:06.807Z,98285.00
2022-12-29T13:27:53.495Z,98294.00
2022-12-29T13:29:38.089Z,98292.00
2022-12-29T13:31:20.405Z,98282.00
2022-12-29T13:33:06.877Z,98287.00
2022-12-29T13:34:53.111Z,98297.00
2022-12-29T13:36:32.698Z,98293.00
2022-12-29T13:38:13.375Z,98294.00
2022-12-29T13:39:51.856Z,98283.00
2022-12-29T13:41:35.770Z,98302.00
2022-12-29T13:43:11.637Z,98296.00
2022-12-29T13:44:50.728Z,98300.00
2022-12-29T13:46:42.871Z,98296.00
2022-12-29T13:48:23.508Z,98304.00
2022-12-29T13:50:00.408Z,98293.00
2022-12-29T13:51:36.336Z,98297.00
2022-12-29T13:53:21.510Z,98302.00
2022-12-29T13:55:08.485Z,98300.00
2022-12-29T13:56:48.650Z,98303.00
2022-12-29T13:58:37.094Z,98301.00
2022-12-29T14:00:18.697Z,98308.00
2022-12-29T14:02:03.950Z,98308.00
2022-12-29T14:03:51.676Z,98310.00
2022-12-29T14:05:34.323Z,98301.00
2022-12-29T14:07:16.632Z,98313.00
2022-12-29T14:08:50.970Z,98311.00
2022-12-29T14:10:36.209Z,98308.00
2022-12-29T14:12:31.996Z,98313.00
2022-12-29T14:14:22.987Z,98322.00
2022-12-29T14:15:59.699Z,98313.00
2022-12-29T14:17:34.520Z,98318.00
2022-12-29T14:19:17.257Z,98311.00
2022-12-29T14:20:57.767Z,98314.00
2022-12-29T14:22:33.505Z,98312.00
2022-12-29T14:24:42.699Z,98311.00
2022-12-29T14:26:34.421Z,98321.00
2022-12-29T14:28:24.766Z,98316.00
2022-12-29T14:29:59.311Z,98307.00
2022-12-29T14:31:41.767Z,98312.00
2022-12-29T14:33:18.426Z,98320.00
2022-12-29T14:34:58.058Z,98311.00
2022-12-29T14:36:39.164Z,98324.00
2022-12-29T14:38:20.732Z,98335.00
2022-12-29T14:40:07.983Z,98334.00
2022-12-29T14:41:42.158Z,98323.00
2022-12-29T14:43:22.057Z,98317.00
2022-12-29T14:45:07.532Z,98330.00
2022-12-29T14:47:03.096Z,98327.00
2022-12-29T14:48:44.596Z,98343.00
2022-12-29T14:50:24.095Z,98339.00
2022-12-29T14:52:14.158Z,98344.00
2022-12-29T14:53:52.728Z,98339.00
2022-12-29T14:55:40.875Z,98353.00
2022-12-29T14:57:24.261Z,98347.00
2022-12-29T14:59:02.853Z,98369.00
2022-12-29T15:00:39.023Z,98357.00
2022-12-29T15:02:19.333Z,98371.00
2022-12-29T15:03:58.418Z,98384.00
2022-12-29T15:05:43.553Z,98375.00
2022-12-29T15:07:20.580Z,98379.00
2022-12-29T15:09:05.456Z,98380.00
2022-12-29T15:10:46.921Z,98368.00
2022-12-29T15:12:32.012Z,98380.00
2022-12-29T15:14:05.299Z,98377.00
2022-12-29T15:15:40.676Z,98381.00
2022-12-29T15:17:28.152Z,98376.00
2022-12-29T15:19:01.788Z,98376.00
2022-12-29T15:20:34.313Z,98366.00
2022-12-29T15:22:10.204Z,98363.00
2022-12-29T15:23:46.749Z,98359.00
2022-12-29T15:25:20.652Z,98369.00
2022-12-29T15:26:56.394Z,98373.00
2022-12-29T15:28:39.920Z,98358.00
2022-12-29T15:30:18.167Z,98366.00
2022-12-29T15:31:53.143Z,98370.00
2022-12-29T15:33:29.681Z,98373.00
2022-12-29T15:35:26.098Z,98365.00
2022-12-29T15:37:00.376Z,98373.00
2022-12-29T15:38:40.178Z,98361.00
2022-12-29T15:40:27.043Z,98360.00
2022-12-29T15:42:12.147Z,98370.00
2022-12-29T15:44:00.970Z,98363.00
2022-12-29T15:45:37.415Z,98360.00
2022-12-29T15:47:20.064Z,98367.00
2022-12-29T15:48:53.448Z,98359.00
2022-12-29T15:50:31.119Z,98379.00
2022-12-29T15:52:09.958Z,98379.00
2022-12-29T15:53:43.257Z,98377.00
2022-12-29T15:55:27.732Z,98385.00
2022-12-29T15:57:00.972Z,98388.00
2022-12-29T15:58:45.403Z,98374.00
2022-12-29T16:00:27.270Z,98371.00
2022-12-29T16:02:10.315Z,98377.00
2022-12-29T16:03:48.156Z,98382.00
2022-12-29T16:05:22.077Z,98381.00
2022-12-29T16:06:59.567Z,98382.00
2022-12-29T16:08:38.757Z,98385.00
2022-12-29T16:10:28.480Z,98389.00
2022-12-29T16:12:06.887Z,98393.00
2022-12-29T16:13:42.921Z,98392.00
2022-12-29T16:15:16.972Z,98393.00
2022-12-29T16:16:52.623Z,98400.00
2022-12-29T16:18:30.388Z,98403.00
2022-12-29T16:20:18.591Z,98398.00
2022-12-29T16:21:53.132Z,98405.00
2022-12-29T16:23:30.476Z,98399.00
2022-12-29T16:25:12.725Z,98402.00
2022-12-29T16:26:51.516Z,98397.00
2022-12-29T16:28:38.500Z,98395.00
2022-12-29T16:30:27.931Z,98394.00
2022-12-29T16:32:24.443Z,98405.00
2022-12-29T16:33:58.428Z,98408.00
2022-12-29T16:35:47.870Z,98408.00
2022-12-29T16:37:33.356Z,98408.00
2022-12-29T16:39:32.019Z,98405.00
2022-12-29T16:41:05.503Z,98416.00
2022-12-29T16:42:52.322Z,98410.00
2022-12-29T16:44:28.885Z,98411.00
2022-12-29T16:46:26.835Z,98414.00
2022-12-29T16:48:21.359Z,98415.00
2022-12-29T16:50:01.622Z,98415.00
2022-12-29T16:51:38.920Z,98415.00
2022-12-29T16:53:23.481Z,98412.00
2022-12-29T16:55:01.898Z,98405.00
2022-12-29T16:56:39.607Z,98411.00
2022-12-29T16:58:22.121Z,98423.00
2022-12-29T16:59:59.740Z,98417.00
2022-12-29T17:01:37.084Z,98415.00
2022-12-29T17:03:13.431Z,98429.00
2022-12-29T17:04:50.728Z,98425.00
2022-12-29T17:06:25.148Z,98432.00
2022-12-29T17:08:01.618Z,98429.00
2022-12-29T17:09:34.854Z,98435.00
2022-12-29T17:11:42.085Z,98430.00
2022-12-29T17:13:15.508Z,98437.00
2022-12-29T17:14:53.825Z,98442.00
2022-12-29T17:16:26.416Z,98447.00
2022-12-29T17:18:02.065Z,98442.00
2022-12-29T17:19:38.415Z,98454.00
2022-12-29T17:21:11.523Z,98450.00
2022-12-29T17:22:45.627Z,98452.00
2022-12-29T17:24:21.712Z,98436.00
2022-12-29T17:25:56.117Z,98454.00
2022-12-29T17:27:35.313Z,98455.00
2022-12-29T17:29:08.513Z,98454.00
2022-12-29T17:30:42.777Z,98452.00
2022-12-29T17:32:16.277Z,98461.00
2022-12-29T17:33:50.022Z,98469.00
2022-12-29T17:35:24.088Z,98463.00
2022-12-29T17:36:57.601Z,98462.00
2022-12-29T17:38:33.692Z,98460.00
2022-12-29T17:40:15.713Z,98467.00
2022-12-29T17:41:49.815Z,98469.00
2022-12-29T17:43:23.567Z,98476.00
2022-12-29T17:44:57.177Z,98471.00
2022-12-29T17:46:31.173Z,98478.00
2022-12-29T17:48:12.541Z,98477.00
2022-12-29T17:49:46.502Z,98475.00
2022-12-29T17:51:21.578Z,98461.00
2022-12-29T17:53:00.943Z,98470.00
2022-12-29T17:54:35.912Z,98482.00
2022-12-29T17:56:11.654Z,98475.00
2022-12-29T17:57:45.569Z,98470.00
2022-12-29T17:59:20.578Z,98475.00
2022-12-29T18:00:56.669Z,98475.00
2022-12-29T18:02:33.222Z,98482.00
2022-12-29T18:04:06.738Z,98474.00
2022-12-29T18:05:40.536Z,98480.00
2022-12-29T18:07:13.892Z,98478.00
2022-12-29T18:08:47.325Z,98473.00
2022-12-29T18:10:21.275Z,98482.00
2022-12-29T18:11:55.748Z,98486.00
2022-12-29T18:13:41.884Z,98490.00
2022-12-29T18:15:22.933Z,98492.00
2022-12-29T18:16:56.415Z,98488.00
2022-12-29T18:18:29.774Z,98489.00
2022-12-29T18:20:03.102Z,98496.00
2022-12-29T18:21:37.250Z,98503.00
2022-12-29T18:23:20.352Z,98504.00
2022-12-29T18:24:53.817Z,98503.00
2022-12-29T18:26:32.523Z,98496.00
2022-12-29T18:28:07.372Z,98494.00
2022-12-29T18:29:41.468Z,98508.00
2022-12-29T18:31:20.829Z,98510.00
2022-12-29T18:32:54.501Z,98519.00
2022-12-29T18:34:27.869Z,98522.00
2022-12-29T18:36:04.913Z,98518.00
2022-12-29T18:37:38.593Z,98522.00
2022-12-29T18:39:12.853Z,98521.00
2022-12-29T18:40:51.466Z,98522.00
2022-12-29T18:42:24.604Z,98534.00
2022-12-29T18:44:00.480Z,98524.00
2022-12-29T18:45:35.206Z,98528.00
2022-12-29T18:47:09.099Z,98525.00
2022-12-29T18:48:43.133Z,98536.00
2022-12-29T18:50:18.310Z,98543.00
2022-12-29T18:51:54.932Z,98541.00
2022-12-29T18:53:30.461Z,98548.00
2022-12-29T18:55:04.131Z,98551.00
2022-12-29T18:56:37.711Z,98560.00
2022-12-29T18:58:11.380Z,98562.00
2022-12-29T18:59:46.288Z,98564.00
2022-12-29T19:01:23.044Z,98566.00
2022-12-29T19:02:56.474Z,98567.00
2022-12-29T19:04:29.757Z,98554.00
2022-12-29T19:06:03.032Z,98552.00
2022-12-29T19:07:36.266Z,98561.00
2022-12-29T19:09:10.112Z,98574.00
2022-12-29T19:10:44.920Z,98573.00
2022-12-29T19:12:22.247Z,98579.00
2022-12-29T19:13:58.498Z,98573.00
2022-12-29T19:15:37.743Z,98573.00
2022-12-29T19:17:13.060Z,98566.00
2022-12-29T19:18:53.232Z,98570.00
2022-12-29T19:20:36.166Z,98560.00
2022-12-29T19:22:10.558Z,98564.00
2022-12-29T19:23:45.042Z,98566.00
2022-12-29T19:25:20.339Z,98556.00
2022-12-29T19:26:53.622Z,98563.00
2022-12-29T19:28:29.547Z,98562.00
2022-12-29T19:30:04.448Z,98565.00
2022-12-29T19:31:40.251Z,98550.00
2022-12-29T19:33:13.801Z,98574.00
2022-12-29T19:34:48.739Z,98572.00